Gladstone, North Dakota
Current Conditions -  °F | °C
As of 8:56 PM on Tuesday 27 Jan 2015 (Local Time) from KDIK Reporting Station
Clear Clear  
Wind Chill: 32°   Ceiling: Unl
Heat Index: 37°   Visibility: 10mi
Dew Point: 31°   Wind: 6mph
Humidity: 79%   Direction: 180°S
Pressure: 29.77"   Gusts: NA
Location:  46.86°N, 102.57°W
Report Text: KDIK 280356Z AUTO 18005KT 10SM CLR 03/M01 A2977 RMK AO2 SLP097 T00281006
Loading
Personal Weather Stations






























Interactive Weather Map New forecast layout! Learn more

10-Day Weather Forecast

Advertisements
Track Severe Weather on mobile